sensor_id;sensor_type;location;lat;lon;timestamp;pressure;altitude;pressure_sealevel;temperature;humidity
61119;BME280;51448;51.660;5.824;2024-03-23T00:54:30;100957.50;;;7.45;100.00
61119;BME280;51448;51.660;5.824;2024-03-23T00:56:57;100967.34;;;7.46;100.00
61119;BME280;51448;51.660;5.824;2024-03-23T00:59:23;100969.56;;;7.44;100.00
61119;BME280;51448;51.660;5.824;2024-03-23T01:01:54;100967.13;;;7.43;100.00
61119;BME280;51448;51.660;5.824;2024-03-23T01:04:21;100977.28;;;7.42;100.00
61119;BME280;51448;51.660;5.824;2024-03-23T01:06:48;100972.09;;;7.41;100.00
61119;BME280;51448;51.660;5.824;2024-03-23T01:09:14;100978.16;;;7.37;100.00
61119;BME280;51448;51.660;5.824;2024-03-23T01:11:41;100977.34;;;7.37;100.00
61119;BME280;51448;51.660;5.824;2024-03-23T01:14:08;100973.28;;;7.34;100.00
61119;BME280;51448;51.660;5.824;2024-03-23T01:16:34;100966.97;;;7.34;100.00
61119;BME280;51448;51.660;5.824;2024-03-23T01:19:01;100971.63;;;7.33;100.00
61119;BME280;51448;51.660;5.824;2024-03-23T01:21:27;100979.34;;;7.31;100.00
61119;BME280;51448;51.660;5.824;2024-03-23T01:23:54;100969.47;;;7.30;100.00
61119;BME280;51448;51.660;5.824;2024-03-23T01:26:21;100970.28;;;7.31;100.00
61119;BME280;51448;51.660;5.824;2024-03-23T01:28:48;100965.91;;;7.30;100.00
61119;BME280;51448;51.660;5.824;2024-03-23T01:31:15;100957.97;;;7.28;100.00
61119;BME280;51448;51.660;5.824;2024-03-23T01:33:42;100957.97;;;7.28;100.00
61119;BME280;51448;51.660;5.824;2024-03-23T01:36:09;100946.16;;;7.28;100.00
61119;BME280;51448;51.660;5.824;2024-03-23T01:38:35;100963.44;;;7.28;100.00
61119;BME280;51448;51.660;5.824;2024-03-23T01:41:02;100960.19;;;7.26;100.00
61119;BME280;51448;51.660;5.824;2024-03-23T01:43:29;100948.69;;;7.24;100.00
61119;BME280;51448;51.660;5.824;2024-03-23T01:45:56;100943.50;;;7.23;100.00
61119;BME280;51448;51.660;5.824;2024-03-23T01:48:22;100947.34;;;7.22;100.00
61119;BME280;51448;51.660;5.824;2024-03-23T01:50:50;100946.53;;;7.21;100.00
61119;BME280;51448;51.660;5.824;2024-03-23T01:53:17;100926.50;;;7.21;100.00
61119;BME280;51448;51.660;5.824;2024-03-23T01:55:48;100924.06;;;7.19;100.00
61119;BME280;51448;51.660;5.824;2024-03-23T01:58:17;100922.44;;;7.18;100.00
61119;BME280;51448;51.660;5.824;2024-03-23T02:00:43;100935.03;;;7.19;100.00
61119;BME280;51448;51.660;5.824;2024-03-23T02:03:26;100931.75;;;7.17;100.00
61119;BME280;51448;51.660;5.824;2024-03-23T02:05:54;100916.72;;;7.15;100.00
61119;BME280;51448;51.660;5.824;2024-03-23T02:08:23;100915.09;;;7.14;100.00
61119;BME280;51448;51.660;5.824;2024-03-23T02:10:50;100918.09;;;7.12;100.00
61119;BME280;51448;51.660;5.824;2024-03-23T02:13:18;100913.22;;;7.09;100.00
61119;BME280;51448;51.660;5.824;2024-03-23T02:15:45;100913.78;;;7.06;100.00
61119;BME280;51448;51.660;5.824;2024-03-23T02:18:12;100922.03;;;7.06;100.00
61119;BME280;51448;51.660;5.824;2024-03-23T02:20:39;100918.25;;;7.02;100.00
61119;BME280;51448;51.660;5.824;2024-03-23T02:23:05;100917.72;;;7.00;100.00
61119;BME280;51448;51.660;5.824;2024-03-23T02:25:39;100922.38;;;6.99;100.00
61119;BME280;51448;51.660;5.824;2024-03-23T02:28:05;100929.50;;;7.00;100.00
61119;BME280;51448;51.660;5.824;2024-03-23T02:30:32;100928.69;;;7.00;100.00
61119;BME280;51448;51.660;5.824;2024-03-23T02:32:59;100917.19;;;6.98;100.00
61119;BME280;51448;51.660;5.824;2024-03-23T02:35:26;100914.47;;;6.98;100.00
61119;BME280;51448;51.660;5.824;2024-03-23T02:37:52;100912.03;;;6.96;100.00
61119;BME280;51448;51.660;5.824;2024-03-23T02:40:20;100913.91;;;6.96;100.00
61119;BME280;51448;51.660;5.824;2024-03-23T02:42:47;100912.03;;;6.96;100.00
61119;BME280;51448;51.660;5.824;2024-03-23T02:45:13;100912.03;;;6.96;100.00
61119;BME280;51448;51.660;5.824;2024-03-23T02:47:40;100911.19;;;6.96;100.00
61119;BME280;51448;51.660;5.824;2024-03-23T02:50:07;100911.19;;;6.96;100.00
61119;BME280;51448;51.660;5.824;2024-03-23T02:52:36;100917.78;;;6.95;100.00
61119;BME280;51448;51.660;5.824;2024-03-23T02:55:03;100914.53;;;6.93;100.00
61119;BME280;51448;51.660;5.824;2024-03-23T02:57:32;100908.22;;;6.92;100.00
61119;BME280;51448;51.660;5.824;2024-03-23T02:59:59;100906.88;;;6.90;100.00
61119;BME280;51448;51.660;5.824;2024-03-23T03:02:26;100907.97;;;6.89;100.00
61119;BME280;51448;51.660;5.824;2024-03-23T03:04:52;100904.41;;;6.88;100.00
61119;BME280;51448;51.660;5.824;2024-03-23T03:07:19;100905.53;;;6.87;100.00
61119;BME280;51448;51.660;5.824;2024-03-23T03:09:46;100907.47;;;6.87;100.00
61119;BME280;51448;51.660;5.824;2024-03-23T03:12:12;100897.88;;;6.84;100.00
61119;BME280;51448;51.660;5.824;2024-03-23T03:14:39;100894.13;;;6.80;100.00
61119;BME280;51448;51.660;5.824;2024-03-23T03:17:05;100899.28;;;6.81;100.00
61119;BME280;51448;51.660;5.824;2024-03-23T03:19:32;100902.34;;;6.80;100.00
61119;BME280;51448;51.660;5.824;2024-03-23T03:21:59;100906.16;;;6.79;100.00
61119;BME280;51448;51.660;5.824;2024-03-23T03:24:25;100905.09;;;6.80;100.00
61119;BME280;51448;51.660;5.824;2024-03-23T03:26:52;100902.63;;;6.78;100.00
61119;BME280;51448;51.660;5.824;2024-03-23T03:29:19;100902.63;;;6.78;100.00
61119;BME280;51448;51.660;5.824;2024-03-23T03:31:46;100909.22;;;6.77;100.00
61119;BME280;51448;51.660;5.824;2024-03-23T03:34:12;100909.22;;;6.77;100.00
61119;BME280;51448;51.660;5.824;2024-03-23T03:36:39;100895.19;;;6.79;100.00
61119;BME280;51448;51.660;5.824;2024-03-23T03:39:06;100896.63;;;6.76;100.00
61119;BME280;51448;51.660;5.824;2024-03-23T03:41:33;100882.91;;;6.76;100.00
61119;BME280;51448;51.660;5.824;2024-03-23T03:44:00;100889.50;;;6.75;100.00
61119;BME280;51448;51.660;5.824;2024-03-23T03:46:29;100885.66;;;6.76;100.00
61119;BME280;51448;51.660;5.824;2024-03-23T03:48:56;100880.16;;;6.76;100.00
61119;BME280;51448;51.660;5.824;2024-03-23T03:51:22;100885.66;;;6.76;100.00
61119;BME280;51448;51.660;5.824;2024-03-23T03:53:49;100884.00;;;6.75;100.00
61119;BME280;51448;51.660;5.824;2024-03-23T03:56:15;100881.53;;;6.74;100.00
61119;BME280;51448;51.660;5.824;2024-03-23T03:58:42;100887.88;;;6.74;100.00
61119;BME280;51448;51.660;5.824;2024-03-23T04:01:09;100884.28;;;6.74;100.00
61119;BME280;51448;51.660;5.824;2024-03-23T04:03:36;100880.47;;;6.75;100.00
61119;BME280;51448;51.660;5.824;2024-03-23T04:06:03;100880.16;;;6.76;100.00
61119;BME280;51448;51.660;5.824;2024-03-23T04:08:30;100875.78;;;6.75;100.00
61119;BME280;51448;51.660;5.824;2024-03-23T04:10:56;100882.09;;;6.76;100.00
61119;BME280;51448;51.660;5.824;2024-03-23T04:13:23;100882.38;;;6.74;100.00
61119;BME280;51448;51.660;5.824;2024-03-23T04:15:54;100879.66;;;6.74;100.00
61119;BME280;51448;51.660;5.824;2024-03-23T04:18:23;100884.59;;;6.72;100.00
61119;BME280;51448;51.660;5.824;2024-03-23T04:20:50;100879.41;;;6.71;100.00
61119;BME280;51448;51.660;5.824;2024-03-23T04:23:18;100895.03;;;6.70;100.00
61119;BME280;51448;51.660;5.824;2024-03-23T04:25:44;100886.28;;;6.68;100.00
61119;BME280;51448;51.660;5.824;2024-03-23T04:28:11;100882.19;;;6.66;100.00
61119;BME280;51448;51.660;5.824;2024-03-23T04:30:38;100879.47;;;6.66;100.00
61119;BME280;51448;51.660;5.824;2024-03-23T04:33:04;100880.03;;;6.63;100.00
61119;BME280;51448;51.660;5.824;2024-03-23T04:35:31;100882.25;;;6.61;100.00
61119;BME280;51448;51.660;5.824;2024-03-23T04:37:58;100877.34;;;6.57;100.00
61119;BME280;51448;51.660;5.824;2024-03-23T04:40:27;100887.56;;;6.52;100.00
61119;BME280;51448;51.660;5.824;2024-03-23T04:42:54;100882.13;;;6.47;100.00
61119;BME280;51448;51.660;5.824;2024-03-23T04:45:20;100886.03;;;6.41;100.00
61119;BME280;51448;51.660;5.824;2024-03-23T04:47:49;100889.13;;;6.34;100.00
61119;BME280;51448;51.660;5.824;2024-03-23T04:50:15;100889.72;;;6.31;100.00
61119;BME280;51448;51.660;5.824;2024-03-23T04:52:42;100882.38;;;6.26;100.00
61119;BME280;51448;51.660;5.824;2024-03-23T04:55:09;100881.28;;;6.22;100.00
61119;BME280;51448;51.660;5.824;2024-03-23T04:57:36;100882.97;;;6.18;100.00
61119;BME280;51448;51.660;5.824;2024-03-23T05:00:03;100877.53;;;6.13;100.00
61119;BME280;51448;51.660;5.824;2024-03-23T05:02:39;100881.13;;;6.09;100.00
61119;BME280;51448;51.660;5.824;2024-03-23T05:05:05;100881.72;;;6.05;100.00
61119;BME280;51448;51.660;5.824;2024-03-23T05:07:33;100877.63;;;6.03;100.00
61119;BME280;51448;51.660;5.824;2024-03-23T05:10:00;100882.59;;;6.01;100.00
61119;BME280;51448;51.660;5.824;2024-03-23T05:12:27;100879.34;;;5.99;100.00
61119;BME280;51448;51.660;5.824;2024-03-23T05:14:53;100881.81;;;5.95;100.00
61119;BME280;51448;51.660;5.824;2024-03-23T05:17:20;100884.31;;;5.92;100.00
61119;BME280;51448;51.660;5.824;2024-03-23T05:19:47;100881.88;;;5.85;100.00
61119;BME280;51448;51.660;5.824;2024-03-23T05:22:13;100882.47;;;5.82;100.00
61119;BME280;51448;51.660;5.824;2024-03-23T05:24:40;100880.59;;;5.77;100.00
61119;BME280;51448;51.660;5.824;2024-03-23T05:27:06;100889.06;;;5.76;100.00
61119;BME280;51448;51.660;5.824;2024-03-23T05:29:33;100881.72;;;5.71;100.00
61119;BME280;51448;51.660;5.824;2024-03-23T05:32:00;100885.03;;;5.68;100.00
61119;BME280;51448;51.660;5.824;2024-03-23T05:34:26;100879.59;;;5.63;100.00
61119;BME280;51448;51.660;5.824;2024-03-23T05:36:54;100878.78;;;5.63;100.00
61119;BME280;51448;51.660;5.824;2024-03-23T05:39:21;100885.66;;;5.60;100.00
61119;BME280;51448;51.660;5.824;2024-03-23T05:41:48;100881.53;;;5.58;100.00
61119;BME280;51448;51.660;5.824;2024-03-23T05:44:15;100884.56;;;5.56;100.00
61119;BME280;51448;51.660;5.824;2024-03-23T05:46:42;100874.19;;;5.53;100.00
61119;BME280;51448;51.660;5.824;2024-03-23T05:49:08;100879.13;;;5.51;100.00
61119;BME280;51448;51.660;5.824;2024-03-23T05:51:35;100882.41;;;5.48;100.00
61119;BME280;51448;51.660;5.824;2024-03-23T05:54:02;100872.88;;;5.45;100.00
61119;BME280;51448;51.660;5.824;2024-03-23T05:56:28;100878.34;;;5.45;100.00
61119;BME280;51448;51.660;5.824;2024-03-23T05:58:55;100877.53;;;5.45;100.00
61119;BME280;51448;51.660;5.824;2024-03-23T06:01:22;100876.97;;;5.43;100.00
61119;BME280;51448;51.660;5.824;2024-03-23T06:03:48;100878.09;;;5.42;100.00
61119;BME280;51448;51.660;5.824;2024-03-23T06:06:15;100879.19;;;5.41;100.00
61119;BME280;51448;51.660;5.824;2024-03-23T06:08:42;100892.06;;;5.40;100.00
61119;BME280;51448;51.660;5.824;2024-03-23T06:11:08;100892.88;;;5.41;100.00
61119;BME280;51448;51.660;5.824;2024-03-23T06:13:36;100892.88;;;5.41;100.00
61119;BME280;51448;51.660;5.824;2024-03-23T06:16:02;100896.13;;;5.43;100.00
61119;BME280;51448;51.660;5.824;2024-03-23T06:18:29;100886.00;;;5.43;100.00
61119;BME280;51448;51.660;5.824;2024-03-23T06:20:56;100901.34;;;5.44;100.00
61119;BME280;51448;51.660;5.824;2024-03-23T06:23:23;100896.41;;;5.46;100.00
61119;BME280;51448;51.660;5.824;2024-03-23T06:25:50;100885.44;;;5.46;100.00
61119;BME280;51448;51.660;5.824;2024-03-23T06:28:16;100887.91;;;5.48;100.00
61119;BME280;51448;51.660;5.824;2024-03-23T06:30:44;100884.31;;;5.52;100.00
61119;BME280;51448;51.660;5.824;2024-03-23T06:33:11;100896.03;;;5.58;100.00
61119;BME280;51448;51.660;5.824;2024-03-23T06:35:37;100902.00;;;5.65;100.00
61119;BME280;51448;51.660;5.824;2024-03-23T06:38:04;100892.38;;;5.73;100.00
61119;BME280;51448;51.660;5.824;2024-03-23T06:40:31;100897.78;;;5.83;100.00
61119;BME280;51448;51.660;5.824;2024-03-23T06:42:57;100896.91;;;5.93;100.00
61119;BME280;51448;51.660;5.824;2024-03-23T06:45:24;100882.88;;;5.99;100.00
61119;BME280;51448;51.660;5.824;2024-03-23T06:47:51;100891.28;;;6.08;100.00
61119;BME280;51448;51.660;5.824;2024-03-23T06:50:18;100893.13;;;6.18;100.00
61119;BME280;51448;51.660;5.824;2024-03-23T06:52:45;100888.66;;;6.27;100.00
61119;BME280;51448;51.660;5.824;2024-03-23T06:55:12;100891.81;;;6.39;100.00
61119;BME280;51448;51.660;5.824;2024-03-23T06:57:38;100889.44;;;6.56;100.00
61119;BME280;51448;51.660;5.824;2024-03-23T07:00:05;100892.81;;;6.72;100.00
61119;BME280;51448;51.660;5.824;2024-03-23T07:02:36;100893.50;;;6.83;100.00
61119;BME280;51448;51.660;5.824;2024-03-23T07:05:03;100891.41;;;6.99;100.00
61119;BME280;51448;51.660;5.824;2024-03-23T07:07:30;100897.88;;;7.08;100.00
61119;BME280;51448;51.660;5.824;2024-03-23T07:09:56;100890.66;;;7.12;100.00
61119;BME280;51448;51.660;5.824;2024-03-23T07:12:23;100898.38;;;7.10;100.00
61119;BME280;51448;51.660;5.824;2024-03-23T07:14:50;100899.25;;;7.05;100.00
61119;BME280;51448;51.660;5.824;2024-03-23T07:17:16;100896.00;;;7.03;100.00
61119;BME280;51448;51.660;5.824;2024-03-23T07:19:44;100895.75;;;7.00;100.00
61119;BME280;51448;51.660;5.824;2024-03-23T07:22:12;100888.06;;;7.02;100.00
61119;BME280;51448;51.660;5.824;2024-03-23T07:24:40;100884.97;;;7.08;100.00
61119;BME280;51448;51.660;5.824;2024-03-23T07:27:07;100888.69;;;7.18;100.00
61119;BME280;51448;51.660;5.824;2024-03-23T07:29:36;100892.09;;;7.28;100.00
61119;BME280;51448;51.660;5.824;2024-03-23T07:32:03;100896.69;;;7.33;100.00
61119;BME280;51448;51.660;5.824;2024-03-23T07:34:30;100893.06;;;7.37;100.00
61119;BME280;51448;51.660;5.824;2024-03-23T07:36:56;100910.50;;;7.47;100.00
61119;BME280;51448;51.660;5.824;2024-03-23T07:39:23;100897.53;;;7.52;100.00
61119;BME280;51448;51.660;5.824;2024-03-23T07:41:51;100899.38;;;7.57;100.00
61119;BME280;51448;51.660;5.824;2024-03-23T07:44:17;100900.41;;;7.61;100.00
61119;BME280;51448;51.660;5.824;2024-03-23T07:46:44;100898.69;;;7.65;99.51
61119;BME280;51448;51.660;5.824;2024-03-23T07:49:11;100891.50;;;7.69;98.31
61119;BME280;51448;51.660;5.824;2024-03-23T07:51:38;100897.41;;;7.76;97.72
61119;BME280;51448;51.660;5.824;2024-03-23T07:54:05;100900.38;;;7.80;95.64
61119;BME280;51448;51.660;5.824;2024-03-23T07:56:33;100897.34;;;7.81;94.03
61119;BME280;51448;51.660;5.824;2024-03-23T07:59:00;100892.38;;;7.83;94.53
61119;BME280;51448;51.660;5.824;2024-03-23T08:01:26;100894.19;;;7.88;94.85
61119;BME280;51448;51.660;5.824;2024-03-23T08:03:53;100900.16;;;7.95;95.21
61119;BME280;51448;51.660;5.824;2024-03-23T08:06:20;100907.09;;;8.06;94.74
61119;BME280;51448;51.660;5.824;2024-03-23T08:08:52;100900.09;;;8.14;94.52
61119;BME280;51448;51.660;5.824;2024-03-23T08:11:30;100909.59;;;8.22;94.67
61119;BME280;51448;51.660;5.824;2024-03-23T08:13:57;100899.31;;;8.27;95.28
61119;BME280;51448;51.660;5.824;2024-03-23T08:16:24;100894.75;;;8.36;94.65
61119;BME280;51448;51.660;5.824;2024-03-23T08:18:51;100892.75;;;8.42;95.04
61119;BME280;51448;51.660;5.824;2024-03-23T08:21:18;100894.00;;;8.50;95.73
61119;BME280;51448;51.660;5.824;2024-03-23T08:23:45;100893.78;;;8.60;94.45
61119;BME280;51448;51.660;5.824;2024-03-23T08:26:16;100893.97;;;8.63;93.11
61119;BME280;51448;51.660;5.824;2024-03-23T08:28:44;100889.81;;;8.66;93.43
61119;BME280;51448;51.660;5.824;2024-03-23T08:31:11;100897.84;;;8.62;93.67
61119;BME280;51448;51.660;5.824;2024-03-23T08:33:39;100897.03;;;8.62;91.70
61119;BME280;51448;51.660;5.824;2024-03-23T08:36:07;100892.66;;;8.61;92.41
61119;BME280;51448;51.660;5.824;2024-03-23T08:38:35;100887.78;;;8.72;93.12
61119;BME280;51448;51.660;5.824;2024-03-23T08:41:06;100887.88;;;8.80;92.71
61119;BME280;51448;51.660;5.824;2024-03-23T08:43:41;100894.09;;;8.86;91.93
61119;BME280;51448;51.660;5.824;2024-03-23T08:46:13;100886.25;;;8.93;90.51
61119;BME280;51448;51.660;5.824;2024-03-23T08:48:46;100889.81;;;8.93;89.69
61119;BME280;51448;51.660;5.824;2024-03-23T08:51:16;100896.84;;;9.00;89.73
61119;BME280;51448;51.660;5.824;2024-03-23T08:53:43;100891.72;;;9.07;89.80
61119;BME280;51448;51.660;5.824;2024-03-23T08:56:11;100889.38;;;9.14;88.08
61119;BME280;51448;51.660;5.824;2024-03-23T08:58:38;100886.22;;;9.20;88.24
61119;BME280;51448;51.660;5.824;2024-03-23T09:01:10;100881.50;;;9.21;86.48
61119;BME280;51448;51.660;5.824;2024-03-23T09:03:39;100876.53;;;9.09;87.24
61119;BME280;51448;51.660;5.824;2024-03-23T09:06:07;100890.72;;;9.03;87.48
61119;BME280;51448;51.660;5.824;2024-03-23T09:08:35;100895.41;;;8.88;84.25
61119;BME280;51448;51.660;5.824;2024-03-23T09:11:11;100888.91;;;8.71;84.26
61119;BME280;51448;51.660;5.824;2024-03-23T09:13:40;100896.94;;;8.53;83.69
61119;BME280;51448;51.660;5.824;2024-03-23T09:16:08;100895.22;;;8.43;83.88
61119;BME280;51448;51.660;5.824;2024-03-23T09:18:36;100899.06;;;8.42;84.21
61119;BME280;51448;51.660;5.824;2024-03-23T09:21:04;100891.03;;;8.46;83.55
61119;BME280;51448;51.660;5.824;2024-03-23T09:23:37;100898.47;;;8.59;85.13
61119;BME280;51448;51.660;5.824;2024-03-23T09:26:04;100886.25;;;8.79;85.82
61119;BME280;51448;51.660;5.824;2024-03-23T09:28:31;100893.38;;;8.94;85.38
61119;BME280;51448;51.660;5.824;2024-03-23T09:31:04;100891.13;;;8.96;83.62
61119;BME280;51448;51.660;5.824;2024-03-23T09:33:34;100893.28;;;8.85;82.78
61119;BME280;51448;51.660;5.824;2024-03-23T09:36:05;100887.66;;;8.63;84.14
61119;BME280;51448;51.660;5.824;2024-03-23T09:38:33;100879.94;;;8.37;83.43
61119;BME280;51448;51.660;5.824;2024-03-23T09:41:00;100880.66;;;8.10;83.70
61119;BME280;51448;51.660;5.824;2024-03-23T09:43:27;100877.44;;;7.89;84.66
61119;BME280;51448;51.660;5.824;2024-03-23T09:45:53;100878.50;;;7.75;86.44
61119;BME280;51448;51.660;5.824;2024-03-23T09:48:20;100876.44;;;7.67;86.85
61119;BME280;51448;51.660;5.824;2024-03-23T09:50:47;100876.78;;;7.60;87.73
61119;BME280;51448;51.660;5.824;2024-03-23T09:53:15;100885.84;;;7.60;88.84
61119;BME280;51448;51.660;5.824;2024-03-23T09:55:43;100875.31;;;7.68;90.11
61119;BME280;51448;51.660;5.824;2024-03-23T09:58:16;100877.53;;;7.84;91.37
61119;BME280;51448;51.660;5.824;2024-03-23T10:00:44;100868.41;;;8.03;92.79
61119;BME280;51448;51.660;5.824;2024-03-23T10:03:11;100869.19;;;8.22;92.98
61119;BME280;51448;51.660;5.824;2024-03-23T10:05:38;100864.81;;;8.35;92.93
61119;BME280;51448;51.660;5.824;2024-03-23T10:10:41;100859.66;;;8.61;92.54
61119;BME280;51448;51.660;5.824;2024-03-23T10:13:08;100868.59;;;8.80;92.84
61119;BME280;51448;51.660;5.824;2024-03-23T10:15:36;100854.94;;;9.03;92.91
61119;BME280;51448;51.660;5.824;2024-03-23T10:20:42;100851.97;;;9.49;87.16
61119;BME280;51448;51.660;5.824;2024-03-23T10:23:16;100849.09;;;9.54;86.71
61119;BME280;51448;51.660;5.824;2024-03-23T10:25:43;100854.91;;;9.53;83.21
61119;BME280;51448;51.660;5.824;2024-03-23T10:28:10;100865.84;;;9.44;83.89
61119;BME280;51448;51.660;5.824;2024-03-23T10:30:37;100857.38;;;9.40;84.58
61119;BME280;51448;51.660;5.824;2024-03-23T10:33:08;100857.69;;;9.39;84.66
61119;BME280;51448;51.660;5.824;2024-03-23T10:35:37;100851.88;;;9.40;85.69
61119;BME280;51448;51.660;5.824;2024-03-23T10:38:05;100856.03;;;9.52;85.77
61119;BME280;51448;51.660;5.824;2024-03-23T10:40:36;100855.66;;;9.67;81.43
61119;BME280;51448;51.660;5.824;2024-03-23T10:43:03;100846.28;;;9.68;78.60
61119;BME280;51448;51.660;5.824;2024-03-23T10:45:31;100859.09;;;9.72;79.25
61119;BME280;51448;51.660;5.824;2024-03-23T10:47:57;100846.69;;;9.84;77.14
61119;BME280;51448;51.660;5.824;2024-03-23T10:50:34;100846.28;;;9.90;75.29
61119;BME280;51448;51.660;5.824;2024-03-23T10:53:02;100855.63;;;9.89;74.80
61119;BME280;51448;51.660;5.824;2024-03-23T10:55:29;100862.94;;;9.85;75.24
61119;BME280;51448;51.660;5.824;2024-03-23T10:57:57;100856.91;;;9.83;75.66
61119;BME280;51448;51.660;5.824;2024-03-23T11:00:26;100866.31;;;9.82;72.67
61119;BME280;51448;51.660;5.824;2024-03-23T11:02:53;100855.72;;;9.75;73.62
61119;BME280;51448;51.660;5.824;2024-03-23T11:07:53;100854.59;;;9.54;73.78
61119;BME280;51448;51.660;5.824;2024-03-23T11:10:30;100857.53;;;9.58;74.28
61119;BME280;51448;51.660;5.824;2024-03-23T11:13:21;100848.53;;;9.66;76.75
61119;BME280;51448;51.660;5.824;2024-03-23T11:15:49;100853.09;;;9.70;76.84
61119;BME280;51448;51.660;5.824;2024-03-23T11:18:22;100857.31;;;9.68;75.99
61119;BME280;51448;51.660;5.824;2024-03-23T11:20:49;100846.53;;;9.58;76.04
61119;BME280;51448;51.660;5.824;2024-03-23T11:23:28;100852.22;;;9.61;75.91
61119;BME280;51448;51.660;5.824;2024-03-23T11:25:55;100851.97;;;9.71;75.81
61119;BME280;51448;51.660;5.824;2024-03-23T11:28:21;100858.22;;;9.86;76.74
61119;BME280;51448;51.660;5.824;2024-03-23T11:30:48;100846.31;;;9.99;77.39
61119;BME280;51448;51.660;5.824;2024-03-23T11:33:15;100840.88;;;10.16;74.98
61119;BME280;51448;51.660;5.824;2024-03-23T11:35:42;100866.53;;;10.17;73.20
61119;BME280;51448;51.660;5.824;2024-03-23T11:38:16;100884.44;;;10.06;74.46
61119;BME280;51448;51.660;5.824;2024-03-23T11:40:48;100874.69;;;9.77;75.86
61119;BME280;51448;51.660;5.824;2024-03-23T11:43:19;100872.69;;;9.46;77.82
61119;BME280;51448;51.660;5.824;2024-03-23T11:45:52;100868.06;;;9.19;79.02
61119;BME280;51448;51.660;5.824;2024-03-23T11:48:21;100864.31;;;9.02;78.17
61119;BME280;51448;51.660;5.824;2024-03-23T11:50:58;100868.50;;;8.85;78.65
61119;BME280;51448;51.660;5.824;2024-03-23T11:53:25;100861.91;;;8.73;79.71
61119;BME280;51448;51.660;5.824;2024-03-23T11:55:56;100859.03;;;8.64;79.63
61119;BME280;51448;51.660;5.824;2024-03-23T11:58:26;100861.88;;;8.59;79.71
61119;BME280;51448;51.660;5.824;2024-03-23T12:01:01;100869.03;;;8.60;80.33
61119;BME280;51448;51.660;5.824;2024-03-23T12:03:30;100867.00;;;8.65;81.11
61119;BME280;51448;51.660;5.824;2024-03-23T12:06:00;100862.19;;;8.85;81.75
61119;BME280;51448;51.660;5.824;2024-03-23T12:08:32;100860.94;;;9.05;81.63
61119;BME280;51448;51.660;5.824;2024-03-23T12:11:08;100859.81;;;9.19;80.76
61119;BME280;51448;51.660;5.824;2024-03-23T12:13:37;100872.75;;;9.19;78.83
61119;BME280;51448;51.660;5.824;2024-03-23T12:18:41;100862.00;;;8.81;76.83
61119;BME280;51448;51.660;5.824;2024-03-23T12:21:09;100847.31;;;8.58;77.76
61119;BME280;51448;51.660;5.824;2024-03-23T12:23:39;100841.72;;;8.36;79.52
61119;BME280;51448;51.660;5.824;2024-03-23T12:26:06;100829.16;;;8.16;80.60
61119;BME280;51448;51.660;5.824;2024-03-23T12:28:33;100832.91;;;8.06;81.61
61119;BME280;51448;51.660;5.824;2024-03-23T12:31:00;100827.91;;;8.08;83.29
61119;BME280;51448;51.660;5.824;2024-03-23T12:33:26;100824.06;;;8.23;84.66
61119;BME280;51448;51.660;5.824;2024-03-23T12:35:53;100822.69;;;8.39;85.94
61119;BME280;51448;51.660;5.824;2024-03-23T12:38:20;100824.50;;;8.58;86.02
61119;BME280;51448;51.660;5.824;2024-03-23T12:40:50;100819.00;;;8.72;85.43
61119;BME280;51448;51.660;5.824;2024-03-23T12:43:18;100813.56;;;8.80;84.82
61119;BME280;51448;51.660;5.824;2024-03-23T12:45:48;100809.63;;;8.86;84.06
61119;BME280;51448;51.660;5.824;2024-03-23T12:48:16;100818.06;;;8.90;83.09
61119;BME280;51448;51.660;5.824;2024-03-23T12:50:43;100815.50;;;8.93;80.04
61119;BME280;51448;51.660;5.824;2024-03-23T12:53:09;100816.31;;;8.94;79.05
61119;BME280;51448;51.660;5.824;2024-03-23T12:55:37;100841.19;;;8.89;77.55
61119;BME280;51448;51.660;5.824;2024-03-23T12:58:04;100838.75;;;8.74;77.76
61119;BME280;51448;51.660;5.824;2024-03-23T13:00:31;100843.97;;;8.48;79.31
61119;BME280;51448;51.660;5.824;2024-03-23T13:02:57;100845.44;;;8.26;81.52
61119;BME280;51448;51.660;5.824;2024-03-23T13:05:24;100847.59;;;8.15;83.77
61119;BME280;51448;51.660;5.824;2024-03-23T13:07:51;100841.75;;;8.03;84.52
61119;BME280;51448;51.660;5.824;2024-03-23T13:10:17;100830.91;;;7.93;85.60
61119;BME280;51448;51.660;5.824;2024-03-23T13:12:44;100826.25;;;7.94;87.59
61119;BME280;51448;51.660;5.824;2024-03-23T13:15:10;100828.53;;;8.05;90.27
61119;BME280;51448;51.660;5.824;2024-03-23T13:17:37;100830.97;;;8.21;91.04
61119;BME280;51448;51.660;5.824;2024-03-23T13:20:04;100832.88;;;8.39;91.82
61119;BME280;51448;51.660;5.824;2024-03-23T13:22:31;100834.50;;;8.54;90.28
61119;BME280;51448;51.660;5.824;2024-03-23T13:24:58;100840.19;;;8.57;88.66
61119;BME280;51448;51.660;5.824;2024-03-23T13:27:26;100826.34;;;8.62;87.60
61119;BME280;51448;51.660;5.824;2024-03-23T13:29:52;100838.78;;;8.60;86.35
61119;BME280;51448;51.660;5.824;2024-03-23T13:32:19;100841.41;;;8.51;85.89
61119;BME280;51448;51.660;5.824;2024-03-23T13:34:46;100835.53;;;8.44;85.01
61119;BME280;51448;51.660;5.824;2024-03-23T13:37:16;100835.69;;;8.34;84.70
61119;BME280;51448;51.660;5.824;2024-03-23T13:39:43;100835.47;;;8.30;85.72
61119;BME280;51448;51.660;5.824;2024-03-23T13:42:09;100830.50;;;8.32;86.02
61119;BME280;51448;51.660;5.824;2024-03-23T13:44:38;100828.59;;;8.47;87.64
61119;BME280;51448;51.660;5.824;2024-03-23T13:47:05;100822.88;;;8.71;88.18
61119;BME280;51448;51.660;5.824;2024-03-23T13:49:32;100821.31;;;8.92;86.71
61119;BME280;51448;51.660;5.824;2024-03-23T13:51:58;100818.75;;;9.09;87.24
61119;BME280;51448;51.660;5.824;2024-03-23T13:54:27;100813.81;;;9.20;84.91
61119;BME280;51448;51.660;5.824;2024-03-23T13:56:55;100818.69;;;9.23;84.99
61119;BME280;51448;51.660;5.824;2024-03-23T13:59:22;100814.00;;;9.23;82.98
61119;BME280;51448;51.660;5.824;2024-03-23T14:01:50;100798.91;;;9.21;81.85